Main page
METAR-TAF:

METAR-TAF

Airports :

Faro Airport

Faro, Portugal

latitude: 37-01N, longitude: 007-58W, elevation: 7 m

Current weather observation

The report was made 39 minutes ago, at 03:00 UTC
Wind 5 kt from the Northwest
Temperature 17°C
Humidity 82%
Pressure 1013 hPa
Visibility 10 km or more
no clouds below 1500 m and no cumulonimbus

METAR: LPFR 270300Z 31005KT CAVOK 17/14 Q1013

Time: 04:39 (03:39 UTC)

Forecast

The report was made 4 hours and 39 minutes ago, at 23:00 UTC
Forecast valid from 27 at 00 UTC to 27 at 24 UTC
Wind 3 kt from variable directions
Visibility 10 km or more
Scattered clouds at a height of 3500 ft
Becoming
from 27 at 09 UTC to 27 at 12 UTC
Wind 15 kt from the West
Becoming
from 27 at 18 UTC to 27 at 21 UTC
Wind 10 kt from the Northwest

TAF: LPFR 262300Z 2700/2724 VRB03KT 9999 SCT035 BECMG 2709/2712 26015KT BECMG 2718/2721 32010KT

Weather observations and forecasts of more than 4000 airports (METAR and TAF reports).

The available stations are represented by yellow and red dots on the map.

Hover mouse over dot to see the name of the station.

Then click to see weather observations and forecasts.

To change the map : click on the green buttons with a black cross to zoom in, on the green button with a dash to zoom out, or on the green arrows for adjacent maps.


METAR-TAF: